Time;durP1;ratioP1;P1;durP2;ratioP2;P2;SDS_P1;SDS_P2;PMS_P1;PMS_P2;Temp;Humidity;BMP_temperature;BMP_pressure;BME280_temperature;BME280_humidity;BME280_pressure;Samples;Min_cycle;Max_cycle;Signal;HPM_P1;HPM_P2
2022/11/14 00:01:28;;;;;;;90.20;18.60;;;;;;;12.18;100.00;96395.59;5099573;28;20499;-45
2022/11/14 00:03:57;;;;;;;82.65;16.77;;;;;;;12.63;100.00;96386.56;5099779;28;20067;-45
2022/11/14 00:06:25;;;;;;;78.82;16.50;;;;;;;12.74;100.00;96373.03;5093194;28;20056;-47
2022/11/14 00:08:53;;;;;;;96.22;17.33;;;;;;;12.33;100.00;96379.97;5095965;28;20086;-45
2022/11/14 00:11:22;;;;;;;92.70;16.80;;;;;;;12.32;100.00;96373.84;5096017;28;20080;-45
2022/11/14 00:13:52;;;;;;;50.50;16.27;;;;;;;12.37;100.00;96373.34;5098839;28;20075;-48
2022/11/14 00:16:20;;;;;;;92.20;17.08;;;;;;;12.72;100.00;96369.69;5095640;28;20078;-47
2022/11/14 00:18:50;;;;;;;99.32;15.48;;;;;;;12.41;100.00;96380.00;5096628;28;20500;-44
2022/11/14 00:21:18;;;;;;;76.47;16.48;;;;;;;12.92;100.00;96385.31;5097775;28;20079;-44
2022/11/14 00:23:46;;;;;;;88.18;18.23;;;;;;;12.06;100.00;96392.34;5096521;28;20087;-41
2022/11/14 00:26:14;;;;;;;85.70;15.13;;;;;;;11.44;100.00;96390.69;5099216;28;20079;-45
2022/11/14 00:28:43;;;;;;;102.53;16.90;;;;;;;11.27;100.00;96379.16;5092004;28;20087;-41
2022/11/14 00:31:13;;;;;;;51.88;14.95;;;;;;;12.16;100.00;96370.28;5096451;28;20098;-42
2022/11/14 00:33:41;;;;;;;104.25;16.35;;;;;;;12.23;100.00;96358.91;5099473;28;20382;-44
2022/11/14 00:36:09;;;;;;;107.93;16.33;;;;;;;12.10;100.00;96372.53;5098369;28;20083;-44
2022/11/14 00:38:38;;;;;;;87.60;15.73;;;;;;;11.85;100.00;96376.03;5103713;28;20070;-50
2022/11/14 00:41:06;;;;;;;118.05;17.52;;;;;;;11.97;100.00;96382.69;5102484;28;20478;-47
2022/11/14 00:43:35;;;;;;;93.55;15.68;;;;;;;12.04;100.00;96383.75;5103398;28;20522;-44
2022/11/14 00:46:03;;;;;;;84.47;14.30;;;;;;;11.80;100.00;96387.03;5099098;28;20076;-44
2022/11/14 00:48:33;;;;;;;77.65;14.70;;;;;;;11.83;100.00;96388.53;5101156;28;20047;-45
2022/11/14 00:51:01;;;;;;;49.45;13.85;;;;;;;12.26;100.00;96387.69;5099470;28;20076;-44
2022/11/14 00:53:30;;;;;;;88.43;15.23;;;;;;;11.63;100.00;96385.22;5099965;28;20083;-46
2022/11/14 00:55:58;;;;;;;60.15;13.35;;;;;;;11.51;100.00;96386.47;5100985;28;20687;-45
2022/11/14 00:58:27;;;;;;;108.10;15.48;;;;;;;11.41;100.00;96387.34;5103958;28;20489;-49
2022/11/14 01:00:56;;;;;;;65.80;12.93;;;;;;;11.68;100.00;96382.97;5100291;28;20090;-43
2022/11/14 01:03:24;;;;;;;76.38;13.68;;;;;;;11.12;100.00;96389.41;5099936;28;20083;-42
2022/11/14 01:05:54;;;;;;;57.83;13.68;;;;;;;10.71;100.00;96393.41;5099537;28;20075;-44
2022/11/14 01:08:22;;;;;;;47.13;12.93;;;;;;;10.86;100.00;96390.09;5095463;28;20088;-43
2022/11/14 01:10:51;;;;;;;49.40;13.43;;;;;;;11.68;100.00;96390.91;5100970;28;20563;-43
2022/11/14 01:13:19;;;;;;;79.72;15.23;;;;;;;12.01;100.00;96386.72;5094718;28;20079;-43
2022/11/14 01:15:49;;;;;;;45.40;13.35;;;;;;;12.11;100.00;96376.00;5099915;28;20086;-46
2022/11/14 01:18:19;;;;;;;57.85;13.25;;;;;;;11.85;100.00;96381.31;5100590;28;20474;-42
2022/11/14 01:20:48;;;;;;;32.00;12.40;;;;;;;12.24;100.00;96378.25;5098717;28;20078;-46
2022/11/14 01:23:18;;;;;;;71.78;13.98;;;;;;;11.74;100.00;96370.97;5098067;28;20503;-42
2022/11/14 01:25:46;;;;;;;55.37;13.27;;;;;;;10.61;100.00;96378.47;5099360;28;20560;-47
2022/11/14 01:28:16;;;;;;;96.10;13.85;;;;;;;10.22;100.00;96386.50;5103643;28;20086;-46
2022/11/14 01:30:45;;;;;;;72.38;12.30;;;;;;;10.42;100.00;96382.00;5096490;28;20091;-47
2022/11/14 01:33:13;;;;;;;45.00;12.52;;;;;;;11.18;100.00;96375.59;5098779;28;20544;-41
2022/11/14 01:35:42;;;;;;;56.40;13.13;;;;;;;11.20;100.00;96386.84;5095749;28;20086;-47
2022/11/14 01:38:12;;;;;;;35.05;12.85;;;;;;;10.77;100.00;96372.56;5103201;28;20083;-41
2022/11/14 01:40:43;;;;;;;42.58;12.50;;;;;;;11.50;100.00;96366.31;5100756;28;20075;-48
2022/11/14 01:43:29;;;;;;;30.15;11.55;;;;;;;11.29;100.00;96348.16;5096786;28;20082;-44
2022/11/14 01:46:00;;;;;;;49.13;12.05;;;;;;;11.19;100.00;96342.97;5099001;28;20091;-45
2022/11/14 01:48:37;;;;;;;49.67;11.90;;;;;;;10.88;100.00;96345.13;5103332;28;20082;-42
2022/11/14 01:51:15;;;;;;;42.63;11.52;;;;;;;10.68;100.00;96339.97;5097286;28;20102;-44
2022/11/14 01:53:46;;;;;;;50.45;12.18;;;;;;;11.11;100.00;96351.63;5100620;28;20079;-48
2022/11/14 01:56:19;;;;;;;42.65;12.93;;;;;;;10.20;100.00;96374.44;5103147;28;20094;-47
2022/11/14 01:58:51;;;;;;;39.75;11.10;;;;;;;10.45;100.00;96355.34;5096394;28;20079;-41
2022/11/14 02:01:19;;;;;;;59.70;12.05;;;;;;;10.52;100.00;96350.31;5099862;28;20072;-46
2022/11/14 02:03:50;;;;;;;63.50;12.68;;;;;;;10.34;100.00;96357.38;5097957;28;20072;-43
2022/11/14 02:06:21;;;;;;;49.70;12.40;;;;;;;10.19;100.00;96349.91;5102343;28;20079;-47
2022/11/14 02:08:51;;;;;;;66.43;11.30;;;;;;;10.20;100.00;96340.19;5095420;28;20052;-42
2022/11/14 02:11:20;;;;;;;40.63;10.97;;;;;;;10.14;100.00;96335.50;5101972;28;20075;-46
2022/11/14 02:13:49;;;;;;;41.38;10.73;;;;;;;9.62;100.00;96343.00;5100806;28;20086;-42
2022/11/14 02:16:17;;;;;;;61.30;15.77;;;;;;;10.62;100.00;96339.72;5102793;28;20090;-47
2022/11/14 02:18:46;;;;;;;40.13;12.23;;;;;;;10.37;100.00;96346.53;5099010;28;20076;-43
2022/11/14 02:21:15;;;;;;;86.35;13.50;;;;;;;10.75;100.00;96332.28;5099120;28;20080;-44
2022/11/14 02:23:44;;;;;;;50.05;13.48;;;;;;;11.53;100.00;96345.72;5098953;28;20080;-49
2022/11/14 02:26:12;;;;;;;39.58;11.98;;;;;;;10.57;100.00;96366.56;5098292;28;20081;-44
2022/11/14 02:28:40;;;;;;;69.88;12.65;;;;;;;9.46;100.00;96373.38;5093918;28;20094;-43
2022/11/14 02:31:09;;;;;;;45.95;11.95;;;;;;;9.79;100.00;96376.50;5097612;28;20086;-44
2022/11/14 02:33:37;;;;;;;74.75;12.98;;;;;;;9.83;100.00;96367.34;5099334;28;20075;-45
2022/11/14 02:36:06;;;;;;;69.45;11.80;;;;;;;10.45;100.00;96338.72;5078005;28;20154;-42
2022/11/14 02:38:36;;;;;;;65.90;12.85;;;;;;;11.01;100.00;96342.09;5098044;28;20079;-46
2022/11/14 02:41:05;;;;;;;43.70;12.45;;;;;;;11.42;100.00;96340.66;5097213;28;20090;-48
2022/11/14 02:43:33;;;;;;;83.75;14.90;;;;;;;11.29;100.00;96342.88;5097318;28;20091;-43
2022/11/14 02:46:02;;;;;;;46.65;11.85;;;;;;;11.63;100.00;96340.31;5100574;28;20082;-48
2022/11/14 02:48:33;;;;;;;52.22;13.32;;;;;;;11.38;100.00;96347.22;5099551;28;20075;-43
2022/11/14 02:51:01;;;;;;;36.15;12.02;;;;;;;11.33;100.00;96341.59;5101978;28;20075;-46
2022/11/14 02:53:29;;;;;;;38.55;11.55;;;;;;;10.80;100.00;96330.03;5094389;28;20088;-46
2022/11/14 02:55:59;;;;;;;34.78;11.90;;;;;;;10.66;100.00;96327.91;5099262;28;20072;-45
2022/11/14 02:58:27;;;;;;;43.33;12.13;;;;;;;10.78;100.00;96332.00;5095773;28;20091;-43
2022/11/14 03:00:56;;;;;;;45.25;11.45;;;;;;;11.24;100.00;96329.28;5098572;28;20082;-47
2022/11/14 03:03:44;;;;;;;68.78;13.25;;;;;;;10.68;100.00;96336.50;5099676;28;20526;-50
2022/11/14 03:06:13;;;;;;;34.65;12.10;;;;;;;11.01;100.00;96313.94;5097678;28;20544;-45
2022/11/14 03:08:41;;;;;;;50.97;13.35;;;;;;;11.36;100.00;96328.09;5096691;28;20071;-47
2022/11/14 03:11:11;;;;;;;40.83;13.23;;;;;;;11.70;100.00;96308.84;5103538;28;20071;-47
2022/11/14 03:13:39;;;;;;;71.57;14.70;;;;;;;10.79;100.00;96317.81;5098629;28;20087;-43
2022/11/14 03:16:09;;;;;;;36.05;13.30;;;;;;;11.77;100.00;96304.63;5098085;28;20513;-42
2022/11/14 03:18:38;;;;;;;36.50;13.13;;;;;;;11.14;100.00;96297.69;5101018;28;20540;-43
2022/11/14 03:21:07;;;;;;;44.45;13.45;;;;;;;10.96;100.00;96295.06;5099892;28;20083;-45
2022/11/14 03:23:36;;;;;;;41.50;12.95;;;;;;;10.81;100.00;96289.50;5096626;28;20110;-46
2022/11/14 03:26:06;;;;;;;57.03;12.75;;;;;;;10.89;100.00;96294.03;5098371;28;20087;-42
2022/11/14 03:28:37;;;;;;;55.05;12.90;;;;;;;10.16;100.00;96302.75;5099382;28;20469;-45
2022/11/14 03:31:05;;;;;;;;;;;;;;;11.10;100.00;96302.44;5101049;28;20078;-51
2022/11/14 03:33:34;;;;;;;44.13;12.48;;;;;;;11.39;100.00;96306.66;5096746;28;19963;-45
2022/11/14 03:36:03;;;;;;;71.55;14.10;;;;;;;10.92;100.00;96310.38;5094514;28;20080;-43
2022/11/14 03:38:31;;;;;;;79.75;14.70;;;;;;;11.29;100.00;96319.13;5097318;28;20498;-45
2022/11/14 03:41:00;;;;;;;82.30;14.50;;;;;;;11.46;100.00;96331.47;5097291;28;20107;-44
2022/11/14 03:43:31;;;;;;;102.82;15.35;;;;;;;12.06;100.00;96328.91;5098143;28;20095;-45
2022/11/14 03:46:03;;;;;;;55.00;14.40;;;;;;;11.82;100.00;96329.56;5092893;28;20477;-44
2022/11/14 03:48:31;;;;;;;50.95;13.45;;;;;;;11.75;100.00;96338.28;5094702;28;20142;-43
2022/11/14 03:51:00;;;;;;;102.10;15.15;;;;;;;10.93;100.00;96335.78;5095480;28;20078;-43
2022/11/14 03:53:28;;;;;;;84.43;13.85;;;;;;;10.77;100.00;96337.41;5100412;28;20083;-43
2022/11/14 03:55:57;;;;;;;76.22;14.52;;;;;;;11.55;100.00;96325.25;5090146;28;20072;-48
2022/11/14 03:58:25;;;;;;;121.57;17.92;;;;;;;11.53;100.00;96324.59;5089813;28;20088;-44
2022/11/14 04:00:55;;;;;;;59.15;14.27;;;;;;;10.51;100.00;96332.03;5091632;28;20510;-43
2022/11/14 04:03:25;;;;;;;118.72;16.30;;;;;;;11.47;100.00;96333.13;5095022;28;20435;-46
2022/11/14 04:05:53;;;;;;;83.60;14.30;;;;;;;10.93;100.00;96333.13;5098157;28;20075;-46
2022/11/14 04:08:22;;;;;;;93.07;14.90;;;;;;;10.96;100.00;96326.72;5104298;28;20526;-44
2022/11/14 04:10:50;;;;;;;74.55;13.32;;;;;;;10.21;100.00;96334.75;5099403;28;20588;-48
2022/11/14 04:13:18;;;;;;;39.72;12.02;;;;;;;9.87;100.00;96341.53;5099865;28;20078;-43
2022/11/14 04:15:47;;;;;;;63.30;12.90;;;;;;;10.01;100.00;96333.16;5105997;28;20125;-50
2022/11/14 04:18:15;;;;;;;86.82;14.38;;;;;;;10.41;100.00;96327.63;5102104;28;20083;-42
2022/11/14 04:20:45;;;;;;;71.97;13.85;;;;;;;11.09;100.00;96327.19;5102318;28;20075;-47
2022/11/14 04:23:14;;;;;;;68.87;12.87;;;;;;;11.34;100.00;96335.31;5102372;28;20517;-46
2022/11/14 04:25:43;;;;;;;79.18;13.82;;;;;;;11.00;100.00;96333.38;5103515;28;20082;-46
2022/11/14 04:28:12;;;;;;;44.58;11.95;;;;;;;11.35;100.00;96319.31;5100202;28;20090;-44
2022/11/14 04:30:40;;;;;;;54.20;12.38;;;;;;;11.18;100.00;96304.31;5103007;28;20457;-44
2022/11/14 04:33:08;;;;;;;52.80;12.43;;;;;;;11.42;100.00;96303.69;5105555;28;20086;-44
2022/11/14 04:35:37;;;;;;;48.58;11.77;;;;;;;11.27;100.00;96307.88;5098123;28;20080;-48
2022/11/14 04:38:06;;;;;;;51.80;12.77;;;;;;;10.88;100.00;96310.84;5101220;28;20064;-45
2022/11/14 04:40:35;;;;;;;43.97;11.98;;;;;;;11.56;100.00;96305.81;5098213;28;20078;-43
2022/11/14 04:43:04;;;;;;;54.67;15.95;;;;;;;11.34;100.00;96316.84;5102013;28;20086;-43
2022/11/14 04:45:32;;;;;;;36.53;12.30;;;;;;;11.63;100.00;96308.63;5087664;28;20066;-43
2022/11/14 04:48:01;;;;;;;29.98;10.80;;;;;;;11.49;100.00;96306.56;5096243;28;20075;-43
2022/11/14 04:50:29;;;;;;;30.58;12.07;;;;;;;11.52;100.00;96307.06;5106150;28;20074;-42
2022/11/14 04:52:57;;;;;;;51.92;11.80;;;;;;;11.62;100.00;96307.81;5100568;28;20473;-45
2022/11/14 04:55:27;;;;;;;54.22;12.57;;;;;;;11.46;100.00;96310.34;5098946;28;20083;-47
2022/11/14 04:57:56;;;;;;;65.68;13.73;;;;;;;10.84;100.00;96333.19;5098392;28;20083;-43
2022/11/14 05:00:27;;;;;;;45.40;13.57;;;;;;;11.55;100.00;96324.44;5103895;28;20079;-43
2022/11/14 05:02:55;;;;;;;51.53;12.88;;;;;;;11.58;100.00;96324.94;5098731;28;20086;-47
2022/11/14 05:05:24;;;;;;;56.35;12.77;;;;;;;11.43;100.00;96315.94;5102030;28;20098;-45
2022/11/14 05:07:52;;;;;;;35.45;11.95;;;;;;;11.74;100.00;96313.69;5100839;28;20185;-42
2022/11/14 05:10:20;;;;;;;50.50;11.88;;;;;;;11.92;100.00;96299.59;5101655;28;20075;-44
2022/11/14 05:12:53;;;;;;;85.22;11.93;;;;;;;10.89;100.00;96296.66;5099243;28;20070;-48
2022/11/14 05:15:21;;;;;;;78.43;16.80;;;;;;;11.42;100.00;96293.13;5102277;28;20728;-45
2022/11/14 05:17:50;;;;;;;73.93;15.05;;;;;;;10.78;100.00;96292.44;5100643;28;20091;-44
2022/11/14 05:20:18;;;;;;;64.38;12.43;;;;;;;11.24;100.00;96292.34;5098134;28;20067;-43
2022/11/14 05:22:46;;;;;;;62.72;12.73;;;;;;;10.75;100.00;96294.53;5093657;28;20080;-42
2022/11/14 05:25:15;;;;;;;40.47;10.55;;;;;;;10.21;100.00;96297.88;5100798;28;20106;-42
2022/11/14 05:27:43;;;;;;;69.88;12.32;;;;;;;10.29;100.00;96306.88;5096731;28;20094;-41
2022/11/14 05:30:13;;;;;;;47.47;10.70;;;;;;;10.56;100.00;96311.31;5096737;28;20087;-46
2022/11/14 05:32:42;;;;;;;42.40;11.27;;;;;;;11.08;100.00;96298.31;5100549;28;20076;-45
2022/11/14 05:35:10;;;;;;;59.13;12.43;;;;;;;10.18;100.00;96311.31;5098578;28;20090;-48
2022/11/14 05:37:38;;;;;;;80.47;12.38;;;;;;;9.95;100.00;96315.34;5094531;28;20098;-44
2022/11/14 05:40:07;;;;;;;24.48;9.93;;;;;;;10.84;100.00;96322.63;5097175;28;20087;-47
2022/11/14 05:42:36;;;;;;;41.30;12.68;;;;;;;10.18;100.00;96332.41;5102520;28;20775;-51
2022/11/14 05:45:05;;;;;;;70.28;12.00;;;;;;;10.88;100.00;96335.41;5095949;28;20090;-47
2022/11/14 05:47:35;;;;;;;35.90;10.18;;;;;;;10.04;100.00;96339.97;5096582;28;20083;-43
2022/11/14 05:50:04;;;;;;;48.33;10.63;;;;;;;9.68;100.00;96330.09;5096631;28;20075;-48
2022/11/14 05:52:32;;;;;;;54.88;10.80;;;;;;;9.57;100.00;96337.34;5096640;28;20540;-43
2022/11/14 05:55:00;;;;;;;107.60;11.43;;;;;;;9.37;100.00;96341.78;5098224;28;20078;-42
2022/11/14 05:57:30;;;;;;;34.63;10.60;;;;;;;10.40;100.00;96331.25;5099660;28;20075;-44
2022/11/14 05:59:58;;;;;;;64.22;11.40;;;;;;;10.04;100.00;96353.13;5104969;28;20067;-44
2022/11/14 06:02:27;;;;;;;62.05;10.60;;;;;;;9.87;100.00;96359.97;5080495;28;20458;-43
2022/11/14 06:04:57;;;;;;;49.55;10.70;;;;;;;9.39;100.00;96360.88;5099844;28;20072;-43
2022/11/14 06:07:25;;;;;;;60.20;11.30;;;;;;;9.38;100.00;96367.13;5097324;28;20498;-44
2022/11/14 06:09:53;;;;;;;21.73;9.45;;;;;;;10.89;100.00;96349.41;5103461;28;20063;-42
2022/11/14 06:12:22;;;;;;;52.63;10.38;;;;;;;10.68;100.00;96352.34;5105516;28;20540;-47
2022/11/14 06:14:50;;;;;;;58.05;11.13;;;;;;;11.11;100.00;96350.78;5101048;28;20103;-50
2022/11/14 06:17:18;;;;;;;54.53;10.88;;;;;;;9.78;100.00;96359.03;5096130;28;20074;-46
2022/11/14 06:19:47;;;;;;;67.70;10.82;;;;;;;9.58;100.00;96362.69;5101579;28;20089;-47
2022/11/14 06:22:16;;;;;;;53.28;9.82;;;;;;;9.86;100.00;96382.03;5098874;28;20079;-45
2022/11/14 06:24:45;;;;;;;36.80;8.87;;;;;;;9.01;100.00;96389.66;5097441;28;20099;-49
2022/11/14 06:27:13;;;;;;;35.55;8.45;;;;;;;9.08;100.00;96397.03;5096326;28;20076;-46
2022/11/14 06:29:42;;;;;;;42.97;9.05;;;;;;;10.07;100.00;96401.09;5098664;28;20084;-44
2022/11/14 06:32:10;;;;;;;56.00;10.15;;;;;;;9.86;100.00;96390.75;5097747;28;20064;-51
2022/11/14 06:34:38;;;;;;;60.33;9.20;;;;;;;9.42;100.00;96389.56;5097668;28;20071;-45
2022/11/14 06:37:07;;;;;;;43.60;9.10;;;;;;;9.80;100.00;96388.69;5097087;28;20067;-45
2022/11/14 06:39:37;;;;;;;42.70;10.57;;;;;;;10.10;100.00;96387.66;5079093;28;20328;-44
2022/11/14 06:42:05;;;;;;;45.63;9.63;;;;;;;8.78;100.00;96386.47;5098624;28;20079;-45
2022/11/14 06:44:34;;;;;;;69.10;8.85;;;;;;;9.73;100.00;96382.31;5099314;28;20439;-42
2022/11/14 06:47:02;;;;;;;28.45;7.82;;;;;;;10.79;100.00;96383.78;5099053;28;20072;-45
2022/11/14 06:49:30;;;;;;;53.92;9.45;;;;;;;9.93;100.00;96385.75;5099101;28;20751;-46
2022/11/14 06:52:05;;;;;;;44.58;8.73;;;;;;;10.59;100.00;96382.22;5097530;28;20071;-47
2022/11/14 06:54:33;;;;;;;38.42;8.40;;;;;;;10.77;100.00;96384.88;5099266;28;20064;-44
2022/11/14 06:57:03;;;;;;;44.92;8.15;;;;;;;11.01;100.00;96377.25;5097816;28;20088;-42
2022/11/14 06:59:31;;;;;;;31.88;7.90;;;;;;;10.74;100.00;96385.22;5075308;28;20071;-43
2022/11/14 07:01:59;;;;;;;32.28;7.47;;;;;;;10.60;100.00;96387.34;5097089;28;20079;-50
2022/11/14 07:04:28;;;;;;;28.92;7.13;;;;;;;10.02;100.00;96395.44;5096856;28;20090;-44
2022/11/14 07:06:56;;;;;;;40.60;7.60;;;;;;;9.56;100.00;96391.75;5099218;28;20454;-44
2022/11/14 07:09:25;;;;;;;34.03;8.05;;;;;;;9.27;100.00;96379.47;5096098;28;20083;-42
2022/11/14 07:11:54;;;;;;;39.65;10.43;;;;;;;9.78;100.00;96361.69;5103511;28;20090;-45
2022/11/14 07:14:24;;;;;;;51.47;8.52;;;;;;;10.66;100.00;96360.38;5097216;28;20039;-45
2022/11/14 07:16:52;;;;;;;38.33;8.98;;;;;;;10.64;100.00;96357.06;5098207;28;20090;-43
2022/11/14 07:19:20;;;;;;;62.58;9.45;;;;;;;10.80;100.00;96358.22;5093598;28;21359;-48
2022/11/14 07:21:49;;;;;;;59.00;8.77;;;;;;;9.17;100.00;96373.34;5084443;28;20145;-43
2022/11/14 07:24:17;;;;;;;35.75;8.75;;;;;;;10.81;100.00;96354.63;5092363;28;20083;-43
2022/11/14 07:26:46;;;;;;;71.55;9.48;;;;;;;11.04;100.00;96350.53;5095889;28;20071;-42
2022/11/14 07:29:14;;;;;;;33.92;8.20;;;;;;;11.08;100.00;96351.94;5098136;28;20102;-46
2022/11/14 07:31:44;;;;;;;30.83;8.32;;;;;;;11.08;100.00;96349.28;5100541;28;20079;-51
2022/11/14 07:34:12;;;;;;;60.77;8.10;;;;;;;10.55;100.00;96355.31;5087521;28;20063;-44
2022/11/14 07:36:41;;;;;;;64.63;10.38;;;;;;;11.03;100.00;96366.53;5095138;28;20501;-49
2022/11/14 07:39:09;;;;;;;45.50;11.80;;;;;;;10.69;100.00;96370.63;5098743;28;20086;-48
2022/11/14 07:41:39;;;;;;;66.78;16.67;;;;;;;11.30;100.00;96373.56;5096557;28;20083;-48
2022/11/14 07:44:08;;;;;;;46.25;10.15;;;;;;;11.58;100.00;96379.59;5103144;28;20095;-45
2022/11/14 07:46:36;;;;;;;43.03;9.35;;;;;;;9.44;100.00;96379.75;5103025;28;20537;-43
2022/11/14 07:49:06;;;;;;;48.15;9.05;;;;;;;10.08;100.00;96379.06;5101298;28;20110;-43
2022/11/14 07:51:34;;;;;;;59.53;11.20;;;;;;;10.65;100.00;96381.63;5103105;28;20106;-47
2022/11/14 07:54:03;;;;;;;85.63;12.07;;;;;;;9.79;100.00;96397.56;5100739;28;20517;-48
2022/11/14 07:56:31;;;;;;;81.13;11.00;;;;;;;10.06;100.00;96386.28;5101668;28;20075;-42
2022/11/14 07:58:59;;;;;;;80.43;9.77;;;;;;;10.50;100.00;96375.19;5100025;28;20068;-45
2022/11/14 08:01:28;;;;;;;45.45;8.88;;;;;;;9.72;100.00;96385.94;5101069;28;20066;-44
2022/11/14 08:03:57;;;;;;;27.17;7.82;;;;;;;10.54;100.00;96360.75;5103081;28;20079;-45
2022/11/14 08:06:27;;;;;;;67.47;9.88;;;;;;;9.79;100.00;96363.31;5098631;28;20580;-44
2022/11/14 08:08:55;;;;;;;47.33;9.05;;;;;;;10.35;100.00;96359.00;5101623;28;20086;-44
2022/11/14 08:14:06;;;;;;;48.47;8.60;;;;;;;10.40;100.00;96346.25;5104680;28;20074;-44
2022/11/14 08:16:35;;;;;;;76.72;9.80;;;;;;;10.10;100.00;96345.50;5096442;28;20462;-46
2022/11/14 08:19:03;;;;;;;26.90;7.65;;;;;;;10.63;100.00;96334.31;5098944;28;20525;-43
2022/11/14 08:21:33;;;;;;;47.45;10.73;;;;;;;9.98;100.00;96350.13;5100417;28;20079;-46
2022/11/14 08:24:01;;;;;;;23.63;8.27;;;;;;;10.03;100.00;96354.13;5102692;28;20549;-47
2022/11/14 08:26:30;;;;;;;49.90;9.07;;;;;;;10.59;100.00;96332.94;5100335;28;20490;-50
2022/11/14 08:29:01;;;;;;;39.97;9.80;;;;;;;10.42;100.00;96323.19;5101583;28;20083;-41
2022/11/14 08:31:30;;;;;;;35.40;10.45;;;;;;;10.42;100.00;96331.09;5099351;28;20264;-44
2022/11/14 08:33:58;;;;;;;30.05;9.25;;;;;;;10.24;100.00;96333.66;5104008;28;20762;-42
2022/11/14 08:36:26;;;;;;;24.25;10.85;;;;;;;10.23;100.00;96339.91;5098476;28;20083;-45
2022/11/14 08:38:56;;;;;;;32.10;8.75;;;;;;;9.41;100.00;96345.81;5095746;28;20102;-42
2022/11/14 08:41:29;;;;;;;26.33;8.35;;;;;;;10.07;100.00;96337.88;5103080;28;20088;-45
2022/11/14 08:43:57;;;;;;;28.83;8.55;;;;;;;10.34;100.00;96336.28;5099175;28;20079;-44
2022/11/14 08:46:26;;;;;;;37.38;8.77;;;;;;;9.93;100.00;96333.91;5092963;28;20080;-43
2022/11/14 08:48:54;;;;;;;44.92;9.13;;;;;;;11.47;100.00;96338.41;5095602;28;20079;-43
2022/11/14 08:51:22;;;;;;;52.35;8.60;;;;;;;10.37;100.00;96341.25;5102939;28;20726;-43
2022/11/14 08:53:51;;;;;;;64.25;8.68;;;;;;;9.74;100.00;96355.88;5100699;28;20553;-47
2022/11/14 08:56:21;;;;;;;44.78;8.98;;;;;;;9.99;100.00;96350.94;5099191;28;20087;-43
2022/11/14 08:58:49;;;;;;;22.53;8.50;;;;;;;11.24;100.00;96339.84;5097617;28;20267;-50
2022/11/14 09:01:18;;;;;;;19.75;7.72;;;;;;;11.53;100.00;96329.88;5093924;28;20075;-47
2022/11/14 09:03:46;;;;;;;32.17;8.02;;;;;;;10.77;100.00;96321.59;5101609;28;20087;-41
2022/11/14 09:06:14;;;;;;;54.05;8.55;;;;;;;10.87;100.00;96322.34;5095780;28;20067;-43
2022/11/14 09:08:43;;;;;;;24.40;7.88;;;;;;;11.74;100.00;96316.31;5098872;28;20082;-41
2022/11/14 09:11:11;;;;;;;34.13;8.68;;;;;;;9.51;100.00;96334.28;5093103;28;20462;-46
2022/11/14 09:13:47;;;;;;;30.95;8.45;;;;;;;11.14;100.00;96324.91;5093791;28;20090;-42
2022/11/14 09:16:15;;;;;;;20.37;8.43;;;;;;;11.33;100.00;96329.22;5100515;28;20075;-47
2022/11/14 09:18:44;;;;;;;20.52;9.00;;;;;;;11.92;100.00;96326.03;5101704;28;20083;-42
2022/11/14 09:21:12;;;;;;;13.23;7.78;;;;;;;12.09;100.00;96331.25;5094961;28;20714;-45
2022/11/14 09:23:40;;;;;;;26.95;8.70;;;;;;;11.88;100.00;96339.56;5098468;28;20101;-46
2022/11/14 09:26:09;;;;;;;32.33;8.90;;;;;;;12.07;100.00;96337.66;5095408;28;20080;-45
2022/11/14 09:28:38;;;;;;;35.33;8.90;;;;;;;11.44;100.00;96341.34;5096935;28;20080;-44
2022/11/14 09:31:11;;;;;;;23.48;9.10;;;;;;;12.53;100.00;96325.84;5097267;28;20071;-42
2022/11/14 09:33:39;;;;;;;19.73;8.43;;;;;;;11.67;100.00;96336.41;5095493;28;20484;-47
2022/11/14 09:36:10;;;;;;;14.65;7.70;;;;;;;12.03;100.00;96345.09;5096298;28;20083;-44
2022/11/14 09:38:38;;;;;;;;;;;;;;;12.22;100.00;96340.56;5102552;28;20076;-48
2022/11/14 09:41:22;;;;;;;21.83;8.77;;;;;;;12.33;100.00;96333.19;5094174;28;19955;-43
2022/11/14 09:44:13;;;;;;;29.38;18.80;;;;;;;12.65;100.00;96333.47;5099375;28;20083;-45
2022/11/14 09:46:51;;;;;;;14.52;8.60;;;;;;;13.05;100.00;96344.16;5096845;28;20079;-43
2022/11/14 09:49:26;;;;;;;13.52;9.52;;;;;;;13.80;100.00;96343.22;5100077;28;20094;-44
2022/11/14 09:52:00;;;;;;;18.20;9.27;;;;;;;13.82;100.00;96335.91;5098995;28;20081;-47
2022/11/14 09:54:32;;;;;;;9.90;8.05;;;;;;;13.35;100.00;96335.78;5097844;28;20095;-43
2022/11/14 09:57:00;;;;;;;10.80;8.20;;;;;;;14.07;100.00;96328.75;5100687;28;20071;-47
2022/11/14 09:59:29;;;;;;;9.73;8.50;;;;;;;13.99;100.00;96321.63;5097222;28;20572;-44
2022/11/14 10:02:03;;;;;;;26.13;8.98;;;;;;;13.52;100.00;96327.69;5097649;28;20071;-42
2022/11/14 10:04:43;;;;;;;10.35;8.68;;;;;;;12.89;100.00;96344.13;5094941;28;20083;-45
2022/11/14 10:07:19;;;;;;;12.45;9.30;;;;;;;12.94;100.00;96347.13;5097701;28;20090;-44
2022/11/14 10:09:57;;;;;;;14.52;11.20;;;;;;;13.91;100.00;96344.72;5093188;28;20553;-43
2022/11/14 10:12:31;;;;;;;15.60;12.48;;;;;;;13.54;100.00;96340.75;5095469;28;20079;-43
2022/11/14 10:15:09;;;;;;;16.20;12.60;;;;;;;13.64;100.00;96335.28;5097583;28;20165;-43
2022/11/14 10:17:47;;;;;;;16.13;12.43;;;;;;;14.07;100.00;96335.88;5101946;28;20470;-44
2022/11/14 10:20:22;;;;;;;16.45;12.43;;;;;;;13.46;100.00;96333.63;5094309;28;20490;-44
2022/11/14 10:23:13;;;;;;;15.02;11.70;;;;;;;13.83;100.00;96334.09;5103050;28;20082;-46
2022/11/14 10:25:49;;;;;;;15.80;12.18;;;;;;;13.41;100.00;96340.41;5101464;28;20051;-46
2022/11/14 10:28:29;;;;;;;14.73;11.35;;;;;;;14.00;100.00;96322.47;5104798;28;20086;-43
2022/11/14 10:31:05;;;;;;;14.80;11.32;;;;;;;14.19;100.00;96323.94;5101014;28;20075;-43
2022/11/14 10:33:43;;;;;;;13.35;11.27;;;;;;;13.97;100.00;96325.44;5078439;28;20071;-41
2022/11/14 10:36:15;;;;;;;16.25;12.73;;;;;;;13.97;100.00;96328.09;5092622;28;20078;-43
2022/11/14 10:38:48;;;;;;;16.02;12.43;;;;;;;13.92;100.00;96331.28;5101406;28;20694;-41
2022/11/14 10:41:16;;;;;;;16.52;12.73;;;;;;;14.86;100.00;96321.66;5098699;28;20075;-47
2022/11/14 10:44:09;;;;;;;18.48;13.20;;;;;;;15.33;100.00;96325.19;5093603;28;20114;-48
2022/11/14 10:46:39;;;;;;;19.83;15.32;;;;;;;15.10;100.00;96333.13;5095789;28;20087;-47
2022/11/14 10:49:16;;;;;;;19.93;14.10;;;;;;;15.13;100.00;96346.06;5080494;28;20059;-47
2022/11/14 10:51:47;;;;;;;21.70;15.48;;;;;;;15.47;100.00;96347.50;5095203;28;20043;-46
2022/11/14 10:54:19;;;;;;;25.27;17.40;;;;;;;15.04;100.00;96345.31;5097127;28;20082;-45
2022/11/14 10:56:48;;;;;;;23.83;15.50;;;;;;;14.99;100.00;96344.16;5098745;28;20771;-44
2022/11/14 10:59:16;;;;;;;21.73;14.88;;;;;;;15.11;100.00;96345.44;5095063;28;20083;-45
2022/11/14 11:01:53;;;;;;;19.80;14.75;;;;;;;15.30;100.00;96352.94;5097319;28;20064;-42
2022/11/14 11:04:25;;;;;;;19.95;14.45;;;;;;;15.46;100.00;96357.31;5093516;28;20083;-41
2022/11/14 11:06:56;;;;;;;22.83;15.25;;;;;;;15.58;100.00;96360.38;5079578;28;20528;-47
2022/11/14 11:12:18;;;;;;;24.20;14.65;;;;;;;15.57;100.00;96358.72;5090055;28;20043;-47
2022/11/14 11:14:48;;;;;;;21.38;15.02;;;;;;;15.05;100.00;96354.91;5096781;28;20079;-44
2022/11/14 11:17:20;;;;;;;22.13;15.40;;;;;;;14.61;100.00;96354.66;5102443;28;20079;-50
2022/11/14 11:19:50;;;;;;;24.00;16.35;;;;;;;14.76;100.00;96350.25;5096572;28;20071;-43
2022/11/14 11:22:27;;;;;;;22.53;15.13;;;;;;;14.57;100.00;96358.66;5096400;28;20466;-45
2022/11/14 11:24:55;;;;;;;23.00;14.85;;;;;;;15.20;100.00;96369.09;5096092;28;20083;-46
2022/11/14 11:27:26;;;;;;;22.63;15.20;;;;;;;14.79;100.00;96365.00;5099294;28;20114;-42
2022/11/14 11:30:04;;;;;;;17.13;12.90;;;;;;;14.95;100.00;96365.75;5090814;28;21370;-44